KACB/ACB METAR and TAF weather

Enter ICAO airport designator
Station Type Date Time Source
KACB METAR 2018/12/12 16:16 UTC NOAA

KACB 121616Z AUTO 15007KT 120V180 10SM SCT050 SCT110 00/M05 A2989 RMK AO2 T00001054


Station Type Date Time Source
KACB Decoded METAR 2018/12/12 16:16 UTC NOAA

Bellaire, Antrim County Airport, MI, United States (KACB) 44-59-18N 085-11-54W
Dec 12, 2018 - 11:16 AM EST / 2018.12.12 1616 UTC
Wind: from the SSE (150 degrees) at 8 MPH (7 KT) (direction variable):0
Visibility: 10 mile(s):0
Sky conditions: partly cloudy
Temperature: 32.0 F (0.0 C)
Windchill: 24 F (-4 C):1
Dew Point: 22.3 F (-5.4 C)
Relative Humidity: 66%
Pressure (altimeter): 29.89 in. Hg (1012 hPa)
ob: KACB 121616Z AUTO 15007KT 120V180 10SM SCT050 SCT110 00/M05 A2989 RMK AO2 T00001054
cycle: 16

Station Type Date Time Source
KACB TAF UTC NOAA

Error!


Example: see airport list